createdAt,value
2023-01-20T00:00:25.139Z,100.00
2023-01-20T00:02:57.440Z,99.75
2023-01-20T00:05:27.221Z,99.42
2023-01-20T00:07:56.849Z,99.78
2023-01-20T00:10:26.751Z,99.83
2023-01-20T00:12:57.365Z,98.71
2023-01-20T00:15:26.990Z,98.91
2023-01-20T00:18:00.685Z,98.65
2023-01-20T00:20:30.389Z,99.83
2023-01-20T00:23:00.109Z,100.00
2023-01-20T00:25:29.846Z,100.00
2023-01-20T00:27:59.500Z,100.00
2023-01-20T00:30:29.243Z,100.00
2023-01-20T00:33:01.740Z,99.52
2023-01-20T00:35:31.422Z,99.72
2023-01-20T00:38:01.069Z,99.48
2023-01-20T00:40:30.640Z,99.84
2023-01-20T00:43:00.269Z,99.35
2023-01-20T00:45:29.885Z,99.26
2023-01-20T00:48:02.138Z,99.45
2023-01-20T00:50:31.762Z,99.57
2023-01-20T00:53:01.449Z,100.00
2023-01-20T00:55:31.058Z,100.00
2023-01-20T00:58:00.691Z,100.00
2023-01-20T01:00:30.523Z,100.00
2023-01-20T01:03:02.737Z,100.00
2023-01-20T01:05:32.387Z,100.00
2023-01-20T01:08:02.064Z,100.00
2023-01-20T01:10:31.754Z,100.00
2023-01-20T01:13:01.787Z,100.00
2023-01-20T01:15:31.797Z,100.00
2023-01-20T01:18:04.421Z,100.00
2023-01-20T01:20:34.412Z,100.00
2023-01-20T01:23:04.037Z,100.00
2023-01-20T01:25:33.689Z,100.00
2023-01-20T01:28:03.290Z,100.00
2023-01-20T01:30:32.979Z,100.00
2023-01-20T01:33:05.307Z,100.00
2023-01-20T01:35:35.079Z,100.00
2023-01-20T01:38:04.747Z,100.00
2023-01-20T01:40:35.597Z,100.00
2023-01-20T01:43:05.257Z,99.33
2023-01-20T01:45:35.810Z,99.54
2023-01-20T01:48:12.270Z,99.05
2023-01-20T01:50:48.338Z,99.32
2023-01-20T01:53:18.507Z,99.32
2023-01-20T01:55:52.807Z,99.33
2023-01-20T01:58:27.331Z,100.00
2023-01-20T02:00:57.171Z,100.00
2023-01-20T02:03:34.437Z,100.00
2023-01-20T02:06:05.344Z,100.00
2023-01-20T02:08:35.092Z,100.00
2023-01-20T02:11:04.688Z,100.00
2023-01-20T02:13:34.662Z,99.99
2023-01-20T02:16:13.142Z,99.47
2023-01-20T02:19:02.983Z,98.61
2023-01-20T02:21:57.418Z,98.03
2023-01-20T02:25:03.796Z,99.49
2023-01-20T02:28:04.363Z,99.48
2023-01-20T02:31:01.472Z,99.12
2023-01-20T02:33:39.574Z,99.22
2023-01-20T02:36:12.501Z,98.48
2023-01-20T02:38:50.102Z,98.35
2023-01-20T02:41:24.414Z,98.87
2023-01-20T02:44:00.553Z,98.94
2023-01-20T02:46:36.451Z,98.85
2023-01-20T02:49:15.366Z,98.85
2023-01-20T02:51:50.822Z,99.10
2023-01-20T02:54:23.238Z,99.54
2023-01-20T02:56:55.562Z,100.00
2023-01-20T02:59:28.394Z,99.65
2023-01-20T03:02:02.689Z,99.19
2023-01-20T03:04:41.326Z,99.75
2023-01-20T03:07:14.247Z,99.58
2023-01-20T03:09:47.685Z,99.53
2023-01-20T03:12:22.467Z,99.32
2023-01-20T03:14:52.566Z,99.08
2023-01-20T03:17:22.678Z,98.72
2023-01-20T03:19:55.005Z,98.66
2023-01-20T03:22:25.120Z,98.82
2023-01-20T03:24:55.426Z,98.40
2023-01-20T03:27:25.123Z,98.47
2023-01-20T03:29:54.796Z,98.30
2023-01-20T03:32:27.018Z,98.57
2023-01-20T03:34:59.769Z,100.00
2023-01-20T03:37:29.783Z,99.83
2023-01-20T03:39:59.528Z,99.15
2023-01-20T03:42:36.461Z,98.51
2023-01-20T03:45:11.547Z,98.68
2023-01-20T03:47:58.021Z,98.25
2023-01-20T03:50:42.578Z,98.83
2023-01-20T03:53:20.943Z,98.52
2023-01-20T03:55:54.447Z,98.14
2023-01-20T03:58:29.832Z,97.49
2023-01-20T04:01:00.680Z,97.37
2023-01-20T04:03:34.081Z,96.80
2023-01-20T04:06:08.945Z,97.88
2023-01-20T04:08:42.638Z,98.31
2023-01-20T04:11:12.528Z,98.23
2023-01-20T04:13:42.281Z,97.90
2023-01-20T04:16:16.855Z,97.74
2023-01-20T04:18:49.424Z,97.49
2023-01-20T04:21:27.772Z,97.57
2023-01-20T04:24:03.631Z,96.96
2023-01-20T04:26:33.374Z,96.70
2023-01-20T04:29:11.067Z,96.52
2023-01-20T04:31:42.447Z,96.10
2023-01-20T04:34:16.369Z,95.89
2023-01-20T04:36:48.577Z,95.59
2023-01-20T04:39:18.276Z,95.56
2023-01-20T04:41:48.760Z,95.24
2023-01-20T04:44:18.426Z,95.16
2023-01-20T04:46:48.138Z,94.73
2023-01-20T04:49:17.831Z,94.56
2023-01-20T04:51:50.021Z,94.39
2023-01-20T04:54:19.625Z,94.59
2023-01-20T04:56:50.848Z,94.31
2023-01-20T04:59:20.483Z,94.94
2023-01-20T05:01:50.243Z,94.91
2023-01-20T05:04:19.945Z,95.00
2023-01-20T05:06:52.209Z,94.72
2023-01-20T05:09:22.168Z,94.41
2023-01-20T05:11:51.788Z,94.54
2023-01-20T05:14:21.384Z,93.99
2023-01-20T05:16:51.013Z,94.05
2023-01-20T05:19:20.781Z,94.31
2023-01-20T05:21:53.082Z,94.20
2023-01-20T05:24:23.014Z,94.91
2023-01-20T05:26:52.648Z,95.08
2023-01-20T05:29:22.236Z,94.12
2023-01-20T05:31:51.838Z,94.59
2023-01-20T05:34:21.458Z,94.83
2023-01-20T05:36:57.109Z,94.78
2023-01-20T05:39:26.852Z,95.12
2023-01-20T05:41:56.484Z,95.35
2023-01-20T05:44:26.103Z,96.11
2023-01-20T05:46:55.929Z,96.65
2023-01-20T05:49:25.589Z,96.55
2023-01-20T05:51:57.808Z,96.32
2023-01-20T05:54:28.341Z,96.33
2023-01-20T05:56:59.058Z,96.15
2023-01-20T05:59:29.059Z,95.99
2023-01-20T06:01:58.976Z,94.90
2023-01-20T06:04:28.621Z,95.04
2023-01-20T06:07:00.908Z,94.48
2023-01-20T06:09:30.604Z,94.27
2023-01-20T06:12:00.236Z,94.78
2023-01-20T06:14:29.875Z,94.37
2023-01-20T06:16:59.502Z,94.05
2023-01-20T06:19:29.104Z,93.74
2023-01-20T06:22:01.384Z,93.22
2023-01-20T06:24:31.083Z,93.99
2023-01-20T06:27:00.789Z,94.03
2023-01-20T06:29:30.432Z,95.25
2023-01-20T06:32:00.180Z,95.24
2023-01-20T06:34:29.815Z,95.77
2023-01-20T06:37:02.317Z,95.53
2023-01-20T06:39:32.340Z,95.71
2023-01-20T06:42:02.884Z,96.08
2023-01-20T06:44:33.916Z,95.80
2023-01-20T06:47:03.645Z,95.59
2023-01-20T06:49:33.649Z,95.23
2023-01-20T06:52:06.591Z,95.05
2023-01-20T06:54:36.257Z,94.20
2023-01-20T06:57:06.142Z,98.03
2023-01-20T06:59:35.801Z,99.07
2023-01-20T07:02:05.556Z,94.81
2023-01-20T07:04:35.295Z,93.80
2023-01-20T07:07:07.591Z,93.53
2023-01-20T07:09:37.260Z,93.04
2023-01-20T07:12:07.141Z,93.63
2023-01-20T07:14:36.824Z,93.73
2023-01-20T07:17:06.711Z,93.79
2023-01-20T07:19:36.337Z,93.71
2023-01-20T07:22:08.728Z,93.74
2023-01-20T07:24:38.660Z,94.38
2023-01-20T07:27:08.519Z,95.01
2023-01-20T07:29:38.390Z,95.77
2023-01-20T07:32:08.508Z,95.94
2023-01-20T07:34:38.363Z,95.94
2023-01-20T07:37:10.990Z,96.32
2023-01-20T07:39:42.290Z,96.51
2023-01-20T07:42:12.372Z,97.28
2023-01-20T07:44:42.042Z,96.79
2023-01-20T07:47:11.751Z,96.64
2023-01-20T07:49:41.437Z,96.06
2023-01-20T07:52:13.704Z,95.82
2023-01-20T07:54:43.361Z,94.99
2023-01-20T07:57:13.044Z,94.76
2023-01-20T07:59:42.694Z,94.44
2023-01-20T08:02:12.653Z,94.12
2023-01-20T08:04:43.229Z,93.86
2023-01-20T08:07:15.591Z,93.64
2023-01-20T08:09:45.205Z,93.18
2023-01-20T08:12:14.833Z,93.13
2023-01-20T08:14:44.482Z,93.81
2023-01-20T08:17:14.166Z,94.34
2023-01-20T08:19:43.790Z,94.77
2023-01-20T08:22:16.353Z,95.72
2023-01-20T08:24:45.973Z,96.87
2023-01-20T08:27:15.659Z,96.19
2023-01-20T08:29:45.440Z,96.10
2023-01-20T08:32:15.091Z,94.97
2023-01-20T08:34:44.733Z,94.84
2023-01-20T08:37:16.968Z,94.46
2023-01-20T08:39:46.663Z,93.92
2023-01-20T08:42:16.378Z,93.48
2023-01-20T08:44:47.436Z,93.18
2023-01-20T08:47:17.071Z,93.06
2023-01-20T08:49:46.669Z,92.67
2023-01-20T08:52:18.918Z,92.17
2023-01-20T08:54:48.679Z,91.78
2023-01-20T08:57:18.335Z,91.75
2023-01-20T08:59:48.812Z,91.52
2023-01-20T09:02:18.600Z,91.93
2023-01-20T09:04:50.112Z,91.79
2023-01-20T09:07:23.129Z,92.29
2023-01-20T09:09:52.947Z,93.90
2023-01-20T09:12:22.643Z,93.88
2023-01-20T09:14:52.877Z,93.15
2023-01-20T09:17:22.512Z,94.18
2023-01-20T09:19:52.148Z,94.53
2023-01-20T09:22:24.430Z,95.27
2023-01-20T09:24:54.827Z,95.38
2023-01-20T09:27:25.489Z,94.83
2023-01-20T09:29:55.155Z,95.00
2023-01-20T09:32:24.809Z,95.55
2023-01-20T09:34:54.594Z,96.21
2023-01-20T09:37:39.367Z,96.67
2023-01-20T09:40:27.166Z,97.40
2023-01-20T09:43:23.319Z,97.64
2023-01-20T09:45:59.328Z,97.36
2023-01-20T09:48:49.832Z,96.45
2023-01-20T09:51:39.160Z,96.28
2023-01-20T09:54:17.886Z,95.75
2023-01-20T09:56:51.161Z,96.02
2023-01-20T09:59:27.690Z,95.90
2023-01-20T10:02:01.001Z,96.05
2023-01-20T10:04:38.841Z,95.25
2023-01-20T10:07:15.638Z,96.02
2023-01-20T10:09:53.067Z,95.36
2023-01-20T10:12:30.070Z,95.51
2023-01-20T10:15:04.958Z,95.94
2023-01-20T10:17:38.731Z,95.53
2023-01-20T10:20:15.697Z,95.62
2023-01-20T10:22:50.685Z,95.29
2023-01-20T10:25:25.706Z,94.29
2023-01-20T10:27:58.903Z,94.09
2023-01-20T10:30:34.387Z,93.96
2023-01-20T10:33:11.580Z,93.66
2023-01-20T10:35:45.235Z,92.62
2023-01-20T10:38:23.871Z,91.80
2023-01-20T10:41:01.410Z,91.86
2023-01-20T10:43:31.092Z,91.70
2023-01-20T10:46:19.509Z,91.08
2023-01-20T10:49:21.241Z,90.43
2023-01-20T10:52:00.044Z,91.45
2023-01-20T10:54:40.590Z,90.47
2023-01-20T10:57:16.021Z,91.16
2023-01-20T10:59:48.473Z,91.36
2023-01-20T11:02:22.088Z,90.65
2023-01-20T11:04:57.820Z,90.85
2023-01-20T11:07:28.795Z,90.51
2023-01-20T11:09:58.519Z,89.83
2023-01-20T11:12:35.698Z,90.13
2023-01-20T11:15:17.717Z,90.41
2023-01-20T11:17:47.492Z,90.61
2023-01-20T11:20:22.413Z,90.58
2023-01-20T11:22:52.783Z,90.44
2023-01-20T11:25:28.388Z,90.01
2023-01-20T11:28:02.865Z,90.05
2023-01-20T11:30:35.055Z,89.98
2023-01-20T11:33:11.973Z,89.21
2023-01-20T11:35:41.646Z,89.26
2023-01-20T11:38:25.754Z,88.51
2023-01-20T11:40:57.392Z,88.20
2023-01-20T11:43:34.552Z,87.88
2023-01-20T11:46:16.379Z,88.09
2023-01-20T11:48:46.152Z,87.54
2023-01-20T11:51:25.457Z,86.77
2023-01-20T11:54:09.774Z,86.81
2023-01-20T11:56:43.679Z,86.41
2023-01-20T11:59:27.089Z,85.92
2023-01-20T12:02:02.076Z,86.33
2023-01-20T12:05:07.456Z,86.20
2023-01-20T12:07:40.544Z,85.74
2023-01-20T12:10:19.184Z,85.80
2023-01-20T12:12:54.356Z,85.48
2023-01-20T12:15:29.799Z,85.33
2023-01-20T12:18:04.375Z,84.85
2023-01-20T12:20:54.046Z,84.21
2023-01-20T12:23:36.010Z,84.75
2023-01-20T12:26:07.561Z,84.43
2023-01-20T12:28:45.720Z,84.29
2023-01-20T12:31:20.956Z,83.59
2023-01-20T12:33:53.434Z,82.66
2023-01-20T12:36:47.668Z,82.72
2023-01-20T12:39:38.401Z,82.15
2023-01-20T12:42:38.496Z,82.01
2023-01-20T12:45:21.936Z,83.25
2023-01-20T12:48:08.530Z,82.45
2023-01-20T12:50:53.744Z,82.52
2023-01-20T12:53:39.419Z,82.80
2023-01-20T12:56:21.029Z,82.19
2023-01-20T12:59:00.485Z,80.47
2023-01-20T13:01:47.655Z,80.35
2023-01-20T13:04:47.015Z,80.78
2023-01-20T13:07:25.285Z,80.83
2023-01-20T13:10:19.300Z,80.17
2023-01-20T13:12:58.813Z,79.11
2023-01-20T13:15:32.038Z,79.25
2023-01-20T13:18:20.052Z,76.78
2023-01-20T13:20:55.081Z,76.14
2023-01-20T13:23:29.064Z,76.34
2023-01-20T13:26:00.560Z,75.84
2023-01-20T13:28:32.873Z,76.23
2023-01-20T13:31:04.374Z,77.54
2023-01-20T13:33:40.654Z,77.80
2023-01-20T13:36:21.870Z,77.83
2023-01-20T13:38:53.543Z,78.57
2023-01-20T13:41:54.435Z,76.48
2023-01-20T13:44:37.754Z,76.97
2023-01-20T13:47:11.240Z,77.16
2023-01-20T13:49:52.927Z,76.61
2023-01-20T13:53:07.820Z,76.12
2023-01-20T13:55:54.497Z,76.51
2023-01-20T13:58:26.699Z,76.12
2023-01-20T14:00:58.071Z,76.16
2023-01-20T14:03:31.640Z,76.38
2023-01-20T14:06:03.683Z,76.34
2023-01-20T14:08:41.677Z,74.86
2023-01-20T14:11:15.827Z,74.93
2023-01-20T14:13:53.987Z,75.04
2023-01-20T14:16:27.182Z,75.38
2023-01-20T14:18:59.580Z,75.04
2023-01-20T14:21:30.684Z,75.02
2023-01-20T14:24:04.315Z,75.48
2023-01-20T14:26:34.641Z,76.19
2023-01-20T14:29:05.340Z,76.38
2023-01-20T14:31:40.792Z,76.04
2023-01-20T14:34:28.036Z,75.65
2023-01-20T14:37:00.439Z,76.32
2023-01-20T14:39:33.721Z,76.63
2023-01-20T14:42:04.378Z,75.59
2023-01-20T14:44:35.681Z,75.44
2023-01-20T14:47:06.727Z,75.33
2023-01-20T14:49:39.566Z,76.69
2023-01-20T14:52:10.283Z,76.05
2023-01-20T14:54:45.837Z,77.37
2023-01-20T14:57:30.951Z,76.80
2023-01-20T15:00:07.659Z,77.14
2023-01-20T15:02:39.502Z,76.65
2023-01-20T15:05:23.096Z,77.30
2023-01-20T15:08:05.771Z,77.27
2023-01-20T15:10:38.076Z,77.82
2023-01-20T15:13:21.988Z,78.28
2023-01-20T15:15:51.753Z,78.58
2023-01-20T15:18:24.388Z,78.14
2023-01-20T15:21:11.751Z,78.63
2023-01-20T15:23:52.483Z,79.04
2023-01-20T15:26:31.919Z,78.87
2023-01-20T15:29:01.680Z,79.40
2023-01-20T15:31:31.353Z,79.33
2023-01-20T15:34:00.990Z,79.50
2023-01-20T15:36:33.211Z,79.24
2023-01-20T15:39:02.869Z,79.84
2023-01-20T15:41:35.065Z,80.00
2023-01-20T15:44:04.746Z,79.73
2023-01-20T15:46:34.624Z,79.63
2023-01-20T15:49:04.312Z,79.86
2023-01-20T15:51:33.999Z,79.79
2023-01-20T15:54:03.620Z,79.92
2023-01-20T15:56:38.308Z,79.85
2023-01-20T15:59:14.736Z,80.05
2023-01-20T16:01:47.231Z,80.63
2023-01-20T16:04:17.143Z,79.98
2023-01-20T16:06:47.611Z,79.97
2023-01-20T16:09:20.089Z,80.41
2023-01-20T16:11:52.405Z,80.36
2023-01-20T16:14:22.246Z,80.39
2023-01-20T16:16:51.894Z,80.63
2023-01-20T16:19:21.700Z,80.99
2023-01-20T16:21:51.350Z,80.95
2023-01-20T16:24:21.014Z,81.30
2023-01-20T16:26:53.261Z,81.02
2023-01-20T16:29:22.878Z,81.31
2023-01-20T16:31:52.578Z,81.02
2023-01-20T16:34:22.275Z,81.24
2023-01-20T16:36:51.952Z,81.24
2023-01-20T16:39:21.603Z,81.53
2023-01-20T16:41:53.801Z,81.33
2023-01-20T16:44:23.615Z,81.16
2023-01-20T16:46:53.251Z,80.46
2023-01-20T16:49:22.923Z,80.37
2023-01-20T16:51:52.602Z,80.25
2023-01-20T16:54:22.307Z,81.09
2023-01-20T16:56:54.647Z,81.19
2023-01-20T16:59:25.942Z,81.22
2023-01-20T17:01:56.101Z,80.93
2023-01-20T17:04:25.931Z,81.32
2023-01-20T17:06:55.949Z,81.49
2023-01-20T17:09:25.791Z,81.39
2023-01-20T17:11:58.033Z,81.41
2023-01-20T17:14:27.707Z,82.51
2023-01-20T17:16:59.732Z,82.48
2023-01-20T17:19:32.144Z,82.39
2023-01-20T17:22:01.882Z,81.22
2023-01-20T17:24:33.080Z,81.98
2023-01-20T17:27:05.560Z,81.96
2023-01-20T17:29:35.599Z,82.13
2023-01-20T17:32:05.538Z,83.54
2023-01-20T17:34:35.414Z,83.05
2023-01-20T17:37:05.065Z,83.33
2023-01-20T17:39:34.680Z,83.25
2023-01-20T17:42:07.451Z,83.06
2023-01-20T17:44:37.919Z,80.70
2023-01-20T17:47:08.164Z,80.51
2023-01-20T17:49:38.026Z,82.17
2023-01-20T17:52:07.999Z,82.87
2023-01-20T17:54:38.068Z,83.24
2023-01-20T17:57:10.516Z,82.37
2023-01-20T17:59:40.157Z,82.68
2023-01-20T18:02:11.874Z,82.56
2023-01-20T18:04:41.516Z,82.68
2023-01-20T18:07:11.408Z,83.24
2023-01-20T18:09:43.013Z,83.55
2023-01-20T18:12:15.756Z,83.22
2023-01-20T18:14:45.599Z,83.53
2023-01-20T18:17:15.208Z,83.74
2023-01-20T18:19:44.847Z,83.66
2023-01-20T18:22:15.197Z,83.43
2023-01-20T18:24:45.102Z,83.82
2023-01-20T18:27:18.818Z,83.65
2023-01-20T18:29:51.569Z,82.86
2023-01-20T18:32:21.485Z,82.52
2023-01-20T18:34:51.366Z,83.04
2023-01-20T18:37:20.966Z,83.06
2023-01-20T18:39:50.852Z,83.53
2023-01-20T18:42:23.294Z,83.42
2023-01-20T18:44:52.929Z,83.89
2023-01-20T18:47:22.606Z,83.77
2023-01-20T18:49:52.241Z,83.58
2023-01-20T18:52:22.161Z,83.44
2023-01-20T18:54:52.110Z,83.08
2023-01-20T18:57:24.624Z,83.13
2023-01-20T18:59:54.322Z,82.83
2023-01-20T19:02:24.013Z,82.51
2023-01-20T19:04:53.652Z,82.62
2023-01-20T19:07:23.744Z,82.98
2023-01-20T19:09:53.760Z,83.23
2023-01-20T19:12:26.450Z,82.84
2023-01-20T19:14:56.143Z,83.08
2023-01-20T19:17:26.817Z,83.01
2023-01-20T19:19:56.441Z,82.88
2023-01-20T19:22:26.391Z,82.83
2023-01-20T19:24:56.045Z,83.14
2023-01-20T19:27:28.269Z,83.37
2023-01-20T19:29:57.891Z,83.21
2023-01-20T19:32:27.538Z,83.33
2023-01-20T19:34:57.188Z,83.10
2023-01-20T19:37:27.938Z,83.24
2023-01-20T19:39:59.735Z,83.27
2023-01-20T19:42:32.966Z,84.08
2023-01-20T19:45:02.625Z,83.92
2023-01-20T19:47:34.114Z,84.09
2023-01-20T19:50:04.106Z,83.52
2023-01-20T19:52:33.725Z,83.43
2023-01-20T19:55:04.761Z,83.67
2023-01-20T19:57:36.960Z,83.26
2023-01-20T20:00:07.860Z,83.11
2023-01-20T20:02:41.512Z,82.80
2023-01-20T20:05:12.387Z,82.24
2023-01-20T20:07:42.319Z,82.26
2023-01-20T20:10:14.454Z,81.89
2023-01-20T20:12:47.246Z,82.20
2023-01-20T20:15:17.333Z,82.04
2023-01-20T20:17:49.130Z,82.14
2023-01-20T20:20:19.550Z,82.08
2023-01-20T20:22:49.254Z,81.68
2023-01-20T20:25:18.997Z,83.41
2023-01-20T20:27:51.207Z,83.80
2023-01-20T20:30:21.561Z,84.29
2023-01-20T20:32:51.406Z,84.29
2023-01-20T20:35:21.364Z,84.50
2023-01-20T20:37:51.475Z,84.37
2023-01-20T20:40:24.952Z,84.15
2023-01-20T20:42:59.035Z,84.52
2023-01-20T20:45:28.743Z,84.80
2023-01-20T20:47:59.816Z,84.62
2023-01-20T20:50:30.004Z,84.25
2023-01-20T20:53:00.385Z,83.92
2023-01-20T20:55:29.998Z,84.32
2023-01-20T20:58:02.387Z,84.14
2023-01-20T21:00:32.291Z,84.23
2023-01-20T21:03:01.923Z,83.89
2023-01-20T21:05:31.579Z,84.06
2023-01-20T21:08:01.264Z,83.91
2023-01-20T21:10:31.014Z,83.96
2023-01-20T21:13:07.005Z,83.68
2023-01-20T21:15:37.828Z,83.86
2023-01-20T21:18:08.164Z,83.62
2023-01-20T21:20:37.796Z,83.46
2023-01-20T21:23:08.369Z,83.54
2023-01-20T21:25:38.021Z,83.40
2023-01-20T21:28:10.575Z,83.63
2023-01-20T21:30:40.685Z,83.25
2023-01-20T21:33:15.157Z,83.00
2023-01-20T21:35:44.854Z,83.56
2023-01-20T21:38:14.595Z,83.52
2023-01-20T21:40:59.829Z,83.51
2023-01-20T21:43:45.939Z,83.53
2023-01-20T21:46:15.879Z,83.48
2023-01-20T21:48:58.090Z,83.03
2023-01-20T21:51:40.426Z,81.61
2023-01-20T21:54:10.239Z,83.30
2023-01-20T21:56:39.902Z,84.92
2023-01-20T21:59:12.263Z,85.21
2023-01-20T22:01:42.030Z,84.89
2023-01-20T22:04:11.640Z,85.22
2023-01-20T22:06:41.272Z,85.47
2023-01-20T22:09:11.010Z,84.96
2023-01-20T22:11:40.749Z,85.01
2023-01-20T22:14:14.376Z,85.19
2023-01-20T22:16:44.147Z,85.03
2023-01-20T22:19:14.698Z,85.95
2023-01-20T22:21:44.794Z,86.56
2023-01-20T22:24:14.449Z,87.10
2023-01-20T22:26:44.193Z,87.04
2023-01-20T22:29:16.530Z,86.66
2023-01-20T22:31:46.571Z,87.01
2023-01-20T22:34:16.524Z,87.13
2023-01-20T22:36:46.799Z,87.34
2023-01-20T22:39:17.560Z,86.02
2023-01-20T22:41:47.280Z,83.88
2023-01-20T22:44:19.532Z,85.23
2023-01-20T22:46:49.227Z,86.02
2023-01-20T22:49:18.940Z,86.12
2023-01-20T22:51:48.726Z,85.63
2023-01-20T22:54:18.451Z,85.66
2023-01-20T22:56:48.118Z,85.26
2023-01-20T22:59:20.361Z,85.07
2023-01-20T23:01:50.053Z,85.62
2023-01-20T23:04:19.755Z,86.31
2023-01-20T23:06:49.611Z,86.48
2023-01-20T23:09:19.281Z,87.05
2023-01-20T23:11:50.206Z,86.80
2023-01-20T23:14:42.446Z,86.73
2023-01-20T23:17:12.077Z,87.10
2023-01-20T23:19:41.737Z,86.46
2023-01-20T23:22:11.381Z,86.04
2023-01-20T23:24:41.180Z,85.44
2023-01-20T23:27:10.860Z,86.32
2023-01-20T23:29:43.083Z,87.05
2023-01-20T23:32:13.032Z,87.26
2023-01-20T23:34:42.787Z,86.99
2023-01-20T23:37:12.409Z,86.63
2023-01-20T23:39:42.064Z,86.16
2023-01-20T23:42:11.718Z,85.94
2023-01-20T23:44:43.911Z,85.66
2023-01-20T23:47:13.574Z,86.46
2023-01-20T23:49:43.200Z,86.57
2023-01-20T23:52:12.891Z,86.36
2023-01-20T23:54:42.595Z,86.40
2023-01-20T23:57:12.234Z,86.28
2023-01-20T23:59:44.781Z,87.30
